createdAt,value
2023-04-18T00:04:03.205Z,80.99
2023-04-18T00:19:07.240Z,81.06
2023-04-18T00:34:09.209Z,81.08
2023-04-18T00:49:12.237Z,81.28
2023-04-18T01:04:14.578Z,81.71
2023-04-18T01:19:17.673Z,81.79
2023-04-18T01:34:19.791Z,81.93
2023-04-18T01:49:21.752Z,82.04
2023-04-18T02:04:23.758Z,82.08
2023-04-18T02:19:25.725Z,82.53
2023-04-18T02:34:27.739Z,82.57
2023-04-18T02:49:29.783Z,82.69
2023-04-18T03:04:32.126Z,82.71
2023-04-18T03:19:34.263Z,82.57
2023-04-18T03:34:36.325Z,82.59
2023-04-18T03:49:39.225Z,82.85
2023-04-18T04:04:41.372Z,82.70
2023-04-18T04:19:43.553Z,82.64
2023-04-18T04:34:46.672Z,82.19
2023-04-18T04:49:48.654Z,81.95
2023-04-18T05:04:50.678Z,81.71
2023-04-18T05:19:52.738Z,81.70
2023-04-18T05:34:54.956Z,81.40
2023-04-18T05:49:56.984Z,80.90
2023-04-18T06:04:59.719Z,80.63
2023-04-18T06:20:02.668Z,78.95
2023-04-18T06:35:05.126Z,77.93
2023-04-18T06:50:08.015Z,76.57
2023-04-18T07:05:10.173Z,75.28
2023-04-18T07:20:14.244Z,74.96
2023-04-18T07:35:16.845Z,74.27
2023-04-18T07:50:19.028Z,73.13
2023-04-18T08:05:21.080Z,71.33
2023-04-18T08:20:23.241Z,69.54
2023-04-18T08:35:25.240Z,69.25
2023-04-18T08:50:27.950Z,69.84
2023-04-18T09:05:30.012Z,67.34
2023-04-18T09:20:38.286Z,67.09
2023-04-18T09:35:40.562Z,65.78
2023-04-18T09:50:43.876Z,66.30
2023-04-18T10:05:47.736Z,65.47
2023-04-18T10:20:49.976Z,62.90
2023-04-18T10:36:17.234Z,62.17
2023-04-18T10:51:23.421Z,62.13
2023-04-18T11:06:27.455Z,61.34
2023-04-18T11:21:30.872Z,60.33
2023-04-18T11:36:35.450Z,59.96
2023-04-18T11:51:43.823Z,59.26
2023-04-18T12:06:56.908Z,56.70
2023-04-18T12:22:05.477Z,56.00
2023-04-18T12:37:07.682Z,52.55
2023-04-18T12:53:05.712Z,53.61
2023-04-18T13:08:16.809Z,53.65
2023-04-18T13:23:19.414Z,50.81
2023-04-18T13:38:21.371Z,51.62
2023-04-18T13:53:23.442Z,50.42
2023-04-18T14:08:25.518Z,48.93
2023-04-18T14:23:27.530Z,52.29
2023-04-18T14:38:29.627Z,52.47
2023-04-18T14:53:31.748Z,51.06
2023-04-18T15:08:33.806Z,52.54
2023-04-18T15:23:36.014Z,50.46
2023-04-18T15:38:38.070Z,51.51
2023-04-18T15:53:40.090Z,52.84
2023-04-18T16:08:42.323Z,54.49
2023-04-18T16:23:44.502Z,55.88
2023-04-18T16:38:46.700Z,58.06
2023-04-18T16:53:49.404Z,59.49
2023-04-18T17:08:54.086Z,60.29
2023-04-18T17:23:58.435Z,60.54
2023-04-18T17:39:07.227Z,60.95
2023-04-18T17:54:11.202Z,61.29
2023-04-18T18:09:14.305Z,63.34
2023-04-18T18:24:19.391Z,67.01
2023-04-18T18:39:21.994Z,68.96
2023-04-18T18:54:25.249Z,69.65
2023-04-18T19:09:27.916Z,69.67
2023-04-18T19:24:32.579Z,70.36
2023-04-18T19:39:35.781Z,71.21
2023-04-18T19:54:39.806Z,72.24
2023-04-18T20:09:42.618Z,72.47
2023-04-18T20:40:09.532Z,75.17
2023-04-18T20:55:12.114Z,76.28
2023-04-18T21:10:14.117Z,76.65
2023-04-18T21:25:16.770Z,76.83
2023-04-18T21:40:18.919Z,77.62
2023-04-18T21:55:21.075Z,79.06
2023-04-18T22:10:23.199Z,80.40
2023-04-18T22:25:25.204Z,81.44
2023-04-18T22:40:27.378Z,81.48
2023-04-18T22:55:29.424Z,80.99
2023-04-18T23:10:31.364Z,81.06
2023-04-18T23:25:36.394Z,81.65
2023-04-18T23:40:38.412Z,81.64
2023-04-18T23:55:40.708Z,82.00
